sensor_id;sensor_type;location;lat;lon;timestamp;P1;durP1;ratioP1;P2;durP2;ratioP2
44098;SDS011;29762;50.086;14.364;2023-04-15T00:01:34;1.42;;;0.80;;
44098;SDS011;29762;50.086;14.364;2023-04-15T00:06:55;1.52;;;0.70;;
44098;SDS011;29762;50.086;14.364;2023-04-15T00:12:14;1.60;;;0.80;;
44098;SDS011;29762;50.086;14.364;2023-04-15T00:17:34;1.50;;;0.77;;
44098;SDS011;29762;50.086;14.364;2023-04-15T00:22:54;0.88;;;0.68;;
44098;SDS011;29762;50.086;14.364;2023-04-15T00:28:13;1.67;;;0.80;;
44098;SDS011;29762;50.086;14.364;2023-04-15T00:33:33;1.48;;;0.88;;
44098;SDS011;29762;50.086;14.364;2023-04-15T00:38:52;1.40;;;0.80;;
44098;SDS011;29762;50.086;14.364;2023-04-15T00:44:13;1.38;;;0.70;;
44098;SDS011;29762;50.086;14.364;2023-04-15T00:49:33;1.15;;;0.70;;
44098;SDS011;29762;50.086;14.364;2023-04-15T00:54:54;0.70;;;0.57;;
44098;SDS011;29762;50.086;14.364;2023-04-15T01:00:13;0.80;;;0.50;;
44098;SDS011;29762;50.086;14.364;2023-04-15T01:05:33;1.90;;;0.70;;
44098;SDS011;29762;50.086;14.364;2023-04-15T01:10:54;0.77;;;0.50;;
44098;SDS011;29762;50.086;14.364;2023-04-15T01:16:14;1.38;;;0.65;;
44098;SDS011;29762;50.086;14.364;2023-04-15T01:21:35;1.20;;;0.60;;
44098;SDS011;29762;50.086;14.364;2023-04-15T01:26:57;1.25;;;0.82;;
44098;SDS011;29762;50.086;14.364;2023-04-15T01:32:17;1.70;;;0.70;;
44098;SDS011;29762;50.086;14.364;2023-04-15T01:37:37;1.58;;;0.68;;
44098;SDS011;29762;50.086;14.364;2023-04-15T01:42:56;2.83;;;0.70;;
44098;SDS011;29762;50.086;14.364;2023-04-15T01:48:16;0.98;;;0.60;;
44098;SDS011;29762;50.086;14.364;2023-04-15T01:53:37;0.75;;;0.60;;
44098;SDS011;29762;50.086;14.364;2023-04-15T01:58:56;1.25;;;0.60;;
44098;SDS011;29762;50.086;14.364;2023-04-15T02:04:16;0.95;;;0.55;;
44098;SDS011;29762;50.086;14.364;2023-04-15T02:09:36;1.25;;;0.70;;
44098;SDS011;29762;50.086;14.364;2023-04-15T02:14:55;0.75;;;0.50;;
44098;SDS011;29762;50.086;14.364;2023-04-15T02:20:15;0.63;;;0.63;;
44098;SDS011;29762;50.086;14.364;2023-04-15T02:25:36;0.93;;;0.60;;
44098;SDS011;29762;50.086;14.364;2023-04-15T02:30:57;0.88;;;0.60;;
44098;SDS011;29762;50.086;14.364;2023-04-15T02:36:17;0.60;;;0.57;;
44098;SDS011;29762;50.086;14.364;2023-04-15T02:41:37;1.10;;;0.60;;
44098;SDS011;29762;50.086;14.364;2023-04-15T02:46:57;1.02;;;0.57;;
44098;SDS011;29762;50.086;14.364;2023-04-15T02:52:17;1.48;;;0.63;;
44098;SDS011;29762;50.086;14.364;2023-04-15T02:57:36;0.68;;;0.50;;
44098;SDS011;29762;50.086;14.364;2023-04-15T03:03:03;1.15;;;0.60;;
44098;SDS011;29762;50.086;14.364;2023-04-15T03:08:23;0.55;;;0.40;;
44098;SDS011;29762;50.086;14.364;2023-04-15T03:13:42;0.43;;;0.40;;
44098;SDS011;29762;50.086;14.364;2023-04-15T03:19:12;0.75;;;0.60;;
44098;SDS011;29762;50.086;14.364;2023-04-15T03:24:35;0.77;;;0.50;;
44098;SDS011;29762;50.086;14.364;2023-04-15T03:29:54;0.85;;;0.60;;
44098;SDS011;29762;50.086;14.364;2023-04-15T03:35:17;0.63;;;0.50;;
44098;SDS011;29762;50.086;14.364;2023-04-15T03:40:37;0.63;;;0.47;;
44098;SDS011;29762;50.086;14.364;2023-04-15T03:45:57;0.60;;;0.50;;
44098;SDS011;29762;50.086;14.364;2023-04-15T03:51:17;0.80;;;0.50;;
44098;SDS011;29762;50.086;14.364;2023-04-15T03:56:36;0.60;;;0.50;;
44098;SDS011;29762;50.086;14.364;2023-04-15T04:01:56;1.38;;;0.43;;
44098;SDS011;29762;50.086;14.364;2023-04-15T04:07:15;0.82;;;0.60;;
44098;SDS011;29762;50.086;14.364;2023-04-15T04:12:35;0.57;;;0.50;;
44098;SDS011;29762;50.086;14.364;2023-04-15T04:17:54;1.65;;;0.52;;
44098;SDS011;29762;50.086;14.364;2023-04-15T04:23:14;0.35;;;0.35;;
44098;SDS011;29762;50.086;14.364;2023-04-15T04:28:34;0.47;;;0.40;;
44098;SDS011;29762;50.086;14.364;2023-04-15T04:33:54;0.77;;;0.57;;
44098;SDS011;29762;50.086;14.364;2023-04-15T04:39:14;1.60;;;0.40;;
44098;SDS011;29762;50.086;14.364;2023-04-15T04:44:33;0.60;;;0.43;;
44098;SDS011;29762;50.086;14.364;2023-04-15T04:49:52;0.35;;;0.32;;
44098;SDS011;29762;50.086;14.364;2023-04-15T04:55:12;0.60;;;0.50;;
44098;SDS011;29762;50.086;14.364;2023-04-15T05:00:31;0.52;;;0.32;;
44098;SDS011;29762;50.086;14.364;2023-04-15T05:05:51;0.52;;;0.30;;
44098;SDS011;29762;50.086;14.364;2023-04-15T05:11:11;0.52;;;0.50;;
44098;SDS011;29762;50.086;14.364;2023-04-15T05:16:31;0.40;;;0.40;;
44098;SDS011;29762;50.086;14.364;2023-04-15T05:21:50;0.40;;;0.40;;
44098;SDS011;29762;50.086;14.364;2023-04-15T05:27:10;0.70;;;0.50;;
44098;SDS011;29762;50.086;14.364;2023-04-15T05:32:30;0.63;;;0.47;;
44098;SDS011;29762;50.086;14.364;2023-04-15T05:37:49;0.43;;;0.40;;
44098;SDS011;29762;50.086;14.364;2023-04-15T05:43:09;0.70;;;0.47;;
44098;SDS011;29762;50.086;14.364;2023-04-15T05:48:28;0.50;;;0.35;;
44098;SDS011;29762;50.086;14.364;2023-04-15T05:53:48;0.63;;;0.43;;
44098;SDS011;29762;50.086;14.364;2023-04-15T05:59:08;0.93;;;0.45;;
44098;SDS011;29762;50.086;14.364;2023-04-15T06:04:27;1.08;;;0.35;;
44098;SDS011;29762;50.086;14.364;2023-04-15T06:09:47;1.92;;;0.43;;
44098;SDS011;29762;50.086;14.364;2023-04-15T06:15:07;1.38;;;0.50;;
44098;SDS011;29762;50.086;14.364;2023-04-15T06:20:28;0.77;;;0.50;;
44098;SDS011;29762;50.086;14.364;2023-04-15T06:25:48;0.63;;;0.40;;
44098;SDS011;29762;50.086;14.364;2023-04-15T06:31:07;1.83;;;0.45;;
44098;SDS011;29762;50.086;14.364;2023-04-15T06:36:27;1.98;;;0.40;;
44098;SDS011;29762;50.086;14.364;2023-04-15T06:41:46;2.80;;;0.40;;
44098;SDS011;29762;50.086;14.364;2023-04-15T06:47:06;0.30;;;0.30;;
44098;SDS011;29762;50.086;14.364;2023-04-15T06:52:25;0.30;;;0.28;;
44098;SDS011;29762;50.086;14.364;2023-04-15T06:57:45;0.30;;;0.30;;
44098;SDS011;29762;50.086;14.364;2023-04-15T07:03:04;1.45;;;0.35;;
44098;SDS011;29762;50.086;14.364;2023-04-15T07:08:24;0.70;;;0.38;;
44098;SDS011;29762;50.086;14.364;2023-04-15T07:13:44;1.17;;;0.40;;
44098;SDS011;29762;50.086;14.364;2023-04-15T07:19:03;0.60;;;0.30;;
44098;SDS011;29762;50.086;14.364;2023-04-15T07:24:22;0.30;;;0.30;;
44098;SDS011;29762;50.086;14.364;2023-04-15T07:29:44;3.30;;;0.47;;
44098;SDS011;29762;50.086;14.364;2023-04-15T07:35:04;1.55;;;0.32;;
44098;SDS011;29762;50.086;14.364;2023-04-15T07:40:23;1.70;;;0.38;;
44098;SDS011;29762;50.086;14.364;2023-04-15T07:45:43;2.92;;;0.30;;
44098;SDS011;29762;50.086;14.364;2023-04-15T07:51:02;0.40;;;0.20;;
44098;SDS011;29762;50.086;14.364;2023-04-15T07:56:22;1.33;;;0.40;;
44098;SDS011;29762;50.086;14.364;2023-04-15T08:01:41;1.48;;;0.40;;
44098;SDS011;29762;50.086;14.364;2023-04-15T08:07:01;1.30;;;0.40;;
44098;SDS011;29762;50.086;14.364;2023-04-15T08:12:22;3.10;;;0.35;;
44098;SDS011;29762;50.086;14.364;2023-04-15T08:17:41;2.05;;;0.43;;
44098;SDS011;29762;50.086;14.364;2023-04-15T08:23:02;1.20;;;0.30;;
44098;SDS011;29762;50.086;14.364;2023-04-15T08:28:21;6.40;;;0.40;;
44098;SDS011;29762;50.086;14.364;2023-04-15T08:33:41;1.55;;;0.32;;
44098;SDS011;29762;50.086;14.364;2023-04-15T08:39:00;4.80;;;0.40;;
44098;SDS011;29762;50.086;14.364;2023-04-15T08:44:22;2.53;;;0.90;;
44098;SDS011;29762;50.086;14.364;2023-04-15T08:49:42;3.72;;;0.30;;
44098;SDS011;29762;50.086;14.364;2023-04-15T08:55:02;5.75;;;0.40;;
44098;SDS011;29762;50.086;14.364;2023-04-15T09:00:23;1.58;;;0.30;;
44098;SDS011;29762;50.086;14.364;2023-04-15T09:05:43;0.90;;;0.47;;
44098;SDS011;29762;50.086;14.364;2023-04-15T09:11:03;2.13;;;1.08;;
44098;SDS011;29762;50.086;14.364;2023-04-15T09:16:23;1.58;;;0.40;;
44098;SDS011;29762;50.086;14.364;2023-04-15T09:21:42;4.15;;;0.70;;
44098;SDS011;29762;50.086;14.364;2023-04-15T09:27:06;2.38;;;0.38;;
44098;SDS011;29762;50.086;14.364;2023-04-15T09:32:25;2.30;;;0.47;;
44098;SDS011;29762;50.086;14.364;2023-04-15T09:37:45;1.15;;;0.50;;
44098;SDS011;29762;50.086;14.364;2023-04-15T09:43:06;2.88;;;0.70;;
44098;SDS011;29762;50.086;14.364;2023-04-15T09:48:31;6.88;;;3.30;;
44098;SDS011;29762;50.086;14.364;2023-04-15T09:53:53;23.35;;;9.77;;
44098;SDS011;29762;50.086;14.364;2023-04-15T09:59:13;24.73;;;9.65;;
44098;SDS011;29762;50.086;14.364;2023-04-15T10:04:34;46.67;;;13.73;;
44098;SDS011;29762;50.086;14.364;2023-04-15T10:09:56;34.45;;;9.43;;
44098;SDS011;29762;50.086;14.364;2023-04-15T10:15:17;31.10;;;8.48;;
44098;SDS011;29762;50.086;14.364;2023-04-15T10:20:37;21.08;;;6.30;;
44098;SDS011;29762;50.086;14.364;2023-04-15T10:25:57;33.28;;;8.07;;
44098;SDS011;29762;50.086;14.364;2023-04-15T10:31:17;28.15;;;8.30;;
44098;SDS011;29762;50.086;14.364;2023-04-15T10:36:36;28.25;;;8.35;;
44098;SDS011;29762;50.086;14.364;2023-04-15T10:47:25;35.35;;;8.60;;
44098;SDS011;29762;50.086;14.364;2023-04-15T10:52:49;34.88;;;10.00;;
44098;SDS011;29762;50.086;14.364;2023-04-15T10:58:09;34.53;;;10.38;;
44098;SDS011;29762;50.086;14.364;2023-04-15T11:03:35;32.88;;;9.02;;
44098;SDS011;29762;50.086;14.364;2023-04-15T11:08:58;26.00;;;8.13;;
44098;SDS011;29762;50.086;14.364;2023-04-15T11:14:21;38.10;;;8.25;;
44098;SDS011;29762;50.086;14.364;2023-04-15T11:19:41;34.20;;;8.73;;
44098;SDS011;29762;50.086;14.364;2023-04-15T11:25:00;27.67;;;8.20;;
44098;SDS011;29762;50.086;14.364;2023-04-15T11:30:21;27.45;;;7.47;;
44098;SDS011;29762;50.086;14.364;2023-04-15T11:35:42;27.17;;;6.63;;
44098;SDS011;29762;50.086;14.364;2023-04-15T11:41:02;20.33;;;5.22;;
44098;SDS011;29762;50.086;14.364;2023-04-15T11:46:27;4.18;;;2.17;;
44098;SDS011;29762;50.086;14.364;2023-04-15T11:51:47;2.78;;;1.30;;
44098;SDS011;29762;50.086;14.364;2023-04-15T11:57:07;2.53;;;1.08;;
44098;SDS011;29762;50.086;14.364;2023-04-15T12:02:30;2.33;;;1.17;;
44098;SDS011;29762;50.086;14.364;2023-04-15T12:07:57;1.95;;;1.20;;
44098;SDS011;29762;50.086;14.364;2023-04-15T12:13:17;1.30;;;1.13;;
44098;SDS011;29762;50.086;14.364;2023-04-15T12:18:37;1.45;;;1.00;;
44098;SDS011;29762;50.086;14.364;2023-04-15T12:23:57;1.52;;;1.02;;
44098;SDS011;29762;50.086;14.364;2023-04-15T12:29:24;1.10;;;1.00;;
44098;SDS011;29762;50.086;14.364;2023-04-15T12:34:49;1.17;;;0.93;;
44098;SDS011;29762;50.086;14.364;2023-04-15T12:40:10;1.17;;;1.13;;
44098;SDS011;29762;50.086;14.364;2023-04-15T12:45:30;1.80;;;1.10;;
44098;SDS011;29762;50.086;14.364;2023-04-15T12:50:49;1.15;;;1.05;;
44098;SDS011;29762;50.086;14.364;2023-04-15T12:56:09;1.10;;;1.00;;
44098;SDS011;29762;50.086;14.364;2023-04-15T13:01:29;1.13;;;1.00;;
44098;SDS011;29762;50.086;14.364;2023-04-15T13:06:48;3.47;;;1.20;;
44098;SDS011;29762;50.086;14.364;2023-04-15T13:12:08;1.33;;;1.00;;
44098;SDS011;29762;50.086;14.364;2023-04-15T13:17:28;1.58;;;1.20;;
44098;SDS011;29762;50.086;14.364;2023-04-15T13:22:47;1.58;;;1.23;;
44098;SDS011;29762;50.086;14.364;2023-04-15T13:28:07;1.15;;;1.05;;
44098;SDS011;29762;50.086;14.364;2023-04-15T13:33:27;1.65;;;1.10;;
44098;SDS011;29762;50.086;14.364;2023-04-15T13:38:46;1.40;;;1.30;;
44098;SDS011;29762;50.086;14.364;2023-04-15T13:44:06;1.25;;;1.15;;
44098;SDS011;29762;50.086;14.364;2023-04-15T13:49:25;1.05;;;0.98;;
44098;SDS011;29762;50.086;14.364;2023-04-15T13:54:45;1.42;;;1.10;;
44098;SDS011;29762;50.086;14.364;2023-04-15T14:00:06;1.08;;;0.93;;
44098;SDS011;29762;50.086;14.364;2023-04-15T14:05:26;1.13;;;1.02;;
44098;SDS011;29762;50.086;14.364;2023-04-15T14:10:45;0.80;;;0.80;;
44098;SDS011;29762;50.086;14.364;2023-04-15T14:16:06;1.48;;;1.20;;
44098;SDS011;29762;50.086;14.364;2023-04-15T14:21:25;1.20;;;1.10;;
44098;SDS011;29762;50.086;14.364;2023-04-15T14:26:46;1.95;;;1.20;;
44098;SDS011;29762;50.086;14.364;2023-04-15T14:32:05;1.08;;;0.90;;
44098;SDS011;29762;50.086;14.364;2023-04-15T14:37:25;1.20;;;1.10;;
44098;SDS011;29762;50.086;14.364;2023-04-15T14:42:45;1.40;;;1.10;;
44098;SDS011;29762;50.086;14.364;2023-04-15T14:48:05;1.10;;;0.90;;
44098;SDS011;29762;50.086;14.364;2023-04-15T14:53:27;1.20;;;1.10;;
44098;SDS011;29762;50.086;14.364;2023-04-15T14:58:47;1.20;;;0.93;;
44098;SDS011;29762;50.086;14.364;2023-04-15T15:04:08;1.13;;;0.93;;
44098;SDS011;29762;50.086;14.364;2023-04-15T15:09:28;0.80;;;0.80;;
44098;SDS011;29762;50.086;14.364;2023-04-15T15:14:48;1.70;;;0.98;;
44098;SDS011;29762;50.086;14.364;2023-04-15T15:20:08;1.13;;;1.00;;
44098;SDS011;29762;50.086;14.364;2023-04-15T15:25:27;3.15;;;1.05;;
44098;SDS011;29762;50.086;14.364;2023-04-15T15:30:48;2.25;;;1.08;;
44098;SDS011;29762;50.086;14.364;2023-04-15T15:36:08;3.08;;;1.08;;
44098;SDS011;29762;50.086;14.364;2023-04-15T15:41:29;1.08;;;0.90;;
44098;SDS011;29762;50.086;14.364;2023-04-15T15:46:49;3.60;;;1.15;;
44098;SDS011;29762;50.086;14.364;2023-04-15T15:52:09;1.02;;;0.93;;
44098;SDS011;29762;50.086;14.364;2023-04-15T15:57:29;3.92;;;1.02;;
44098;SDS011;29762;50.086;14.364;2023-04-15T16:02:49;1.98;;;0.80;;
44098;SDS011;29762;50.086;14.364;2023-04-15T16:08:09;1.15;;;0.90;;
44098;SDS011;29762;50.086;14.364;2023-04-15T16:13:29;1.20;;;0.90;;
44098;SDS011;29762;50.086;14.364;2023-04-15T16:18:48;1.10;;;0.90;;
44098;SDS011;29762;50.086;14.364;2023-04-15T16:24:07;5.80;;;0.98;;
44098;SDS011;29762;50.086;14.364;2023-04-15T16:29:27;1.98;;;0.82;;
44098;SDS011;29762;50.086;14.364;2023-04-15T16:34:46;0.70;;;0.70;;
44098;SDS011;29762;50.086;14.364;2023-04-15T16:40:06;1.92;;;0.80;;
44098;SDS011;29762;50.086;14.364;2023-04-15T16:45:26;1.23;;;0.95;;
44098;SDS011;29762;50.086;14.364;2023-04-15T16:50:46;2.50;;;0.80;;
44098;SDS011;29762;50.086;14.364;2023-04-15T16:56:06;2.33;;;0.85;;
44098;SDS011;29762;50.086;14.364;2023-04-15T17:01:25;0.75;;;0.75;;
44098;SDS011;29762;50.086;14.364;2023-04-15T17:06:45;2.35;;;0.80;;
44098;SDS011;29762;50.086;14.364;2023-04-15T17:12:04;2.20;;;0.80;;
44098;SDS011;29762;50.086;14.364;2023-04-15T17:17:24;1.67;;;0.70;;
44098;SDS011;29762;50.086;14.364;2023-04-15T17:22:43;2.55;;;0.85;;
44098;SDS011;29762;50.086;14.364;2023-04-15T17:28:03;2.13;;;0.77;;
44098;SDS011;29762;50.086;14.364;2023-04-15T17:33:23;2.92;;;0.90;;
44098;SDS011;29762;50.086;14.364;2023-04-15T17:38:42;1.63;;;1.05;;
44098;SDS011;29762;50.086;14.364;2023-04-15T17:44:02;2.63;;;1.00;;
44098;SDS011;29762;50.086;14.364;2023-04-15T17:49:21;3.00;;;0.73;;
44098;SDS011;29762;50.086;14.364;2023-04-15T17:54:40;2.40;;;0.80;;
44098;SDS011;29762;50.086;14.364;2023-04-15T18:00:00;1.15;;;0.90;;
44098;SDS011;29762;50.086;14.364;2023-04-15T18:05:19;2.95;;;0.80;;
44098;SDS011;29762;50.086;14.364;2023-04-15T18:10:39;2.67;;;0.85;;
44098;SDS011;29762;50.086;14.364;2023-04-15T18:15:59;1.00;;;0.90;;
44098;SDS011;29762;50.086;14.364;2023-04-15T18:21:19;2.30;;;0.80;;
44098;SDS011;29762;50.086;14.364;2023-04-15T18:26:39;1.20;;;0.70;;
44098;SDS011;29762;50.086;14.364;2023-04-15T18:31:58;2.72;;;0.93;;
44098;SDS011;29762;50.086;14.364;2023-04-15T18:37:18;2.05;;;0.90;;
44098;SDS011;29762;50.086;14.364;2023-04-15T18:42:38;3.65;;;1.05;;
44098;SDS011;29762;50.086;14.364;2023-04-15T18:47:58;2.20;;;1.02;;
44098;SDS011;29762;50.086;14.364;2023-04-15T18:53:17;2.42;;;0.90;;
44098;SDS011;29762;50.086;14.364;2023-04-15T18:58:37;2.33;;;1.10;;
44098;SDS011;29762;50.086;14.364;2023-04-15T19:03:56;2.45;;;1.00;;
44098;SDS011;29762;50.086;14.364;2023-04-15T19:09:17;3.20;;;1.10;;
44098;SDS011;29762;50.086;14.364;2023-04-15T19:14:37;3.40;;;0.90;;
44098;SDS011;29762;50.086;14.364;2023-04-15T19:19:56;2.17;;;0.85;;
44098;SDS011;29762;50.086;14.364;2023-04-15T19:25:16;2.78;;;1.10;;
44098;SDS011;29762;50.086;14.364;2023-04-15T19:30:35;8.23;;;1.00;;
44098;SDS011;29762;50.086;14.364;2023-04-15T19:35:55;3.47;;;1.30;;
44098;SDS011;29762;50.086;14.364;2023-04-15T19:41:15;10.27;;;1.30;;
44098;SDS011;29762;50.086;14.364;2023-04-15T19:46:36;3.22;;;1.25;;
44098;SDS011;29762;50.086;14.364;2023-04-15T19:51:55;7.05;;;1.20;;
44098;SDS011;29762;50.086;14.364;2023-04-15T19:57:15;4.30;;;1.30;;
44098;SDS011;29762;50.086;14.364;2023-04-15T20:02:34;3.72;;;1.48;;
44098;SDS011;29762;50.086;14.364;2023-04-15T20:07:54;4.63;;;1.70;;
44098;SDS011;29762;50.086;14.364;2023-04-15T20:13:13;4.95;;;1.80;;
44098;SDS011;29762;50.086;14.364;2023-04-15T20:18:33;6.53;;;2.22;;
44098;SDS011;29762;50.086;14.364;2023-04-15T20:23:53;9.07;;;1.88;;
44098;SDS011;29762;50.086;14.364;2023-04-15T20:29:12;7.15;;;2.10;;
44098;SDS011;29762;50.086;14.364;2023-04-15T20:34:33;7.32;;;2.40;;
44098;SDS011;29762;50.086;14.364;2023-04-15T20:39:53;6.03;;;2.33;;
44098;SDS011;29762;50.086;14.364;2023-04-15T20:45:12;10.07;;;2.70;;
44098;SDS011;29762;50.086;14.364;2023-04-15T20:50:31;8.95;;;2.92;;
44098;SDS011;29762;50.086;14.364;2023-04-15T20:55:50;11.15;;;2.83;;
44098;SDS011;29762;50.086;14.364;2023-04-15T21:01:10;8.35;;;2.75;;
44098;SDS011;29762;50.086;14.364;2023-04-15T21:06:31;9.18;;;2.92;;
44098;SDS011;29762;50.086;14.364;2023-04-15T21:11:51;8.38;;;3.10;;
44098;SDS011;29762;50.086;14.364;2023-04-15T21:17:11;8.45;;;3.10;;
44098;SDS011;29762;50.086;14.364;2023-04-15T21:22:30;9.45;;;3.10;;
44098;SDS011;29762;50.086;14.364;2023-04-15T21:27:50;8.95;;;3.10;;
44098;SDS011;29762;50.086;14.364;2023-04-15T21:33:09;8.93;;;2.97;;
44098;SDS011;29762;50.086;14.364;2023-04-15T21:38:29;7.75;;;2.47;;
44098;SDS011;29762;50.086;14.364;2023-04-15T21:43:48;5.70;;;2.40;;
44098;SDS011;29762;50.086;14.364;2023-04-15T21:49:08;7.55;;;2.50;;
44098;SDS011;29762;50.086;14.364;2023-04-15T21:54:27;6.30;;;2.42;;
44098;SDS011;29762;50.086;14.364;2023-04-15T21:59:46;5.75;;;2.55;;
44098;SDS011;29762;50.086;14.364;2023-04-15T22:05:06;5.70;;;2.38;;
44098;SDS011;29762;50.086;14.364;2023-04-15T22:10:26;6.18;;;2.50;;
44098;SDS011;29762;50.086;14.364;2023-04-15T22:15:46;6.38;;;2.47;;
44098;SDS011;29762;50.086;14.364;2023-04-15T22:21:06;6.47;;;2.20;;
44098;SDS011;29762;50.086;14.364;2023-04-15T22:26:26;5.05;;;1.88;;
44098;SDS011;29762;50.086;14.364;2023-04-15T22:31:45;5.80;;;2.13;;
44098;SDS011;29762;50.086;14.364;2023-04-15T22:37:05;4.40;;;1.90;;
44098;SDS011;29762;50.086;14.364;2023-04-15T22:42:24;5.18;;;2.10;;
44098;SDS011;29762;50.086;14.364;2023-04-15T22:47:44;5.35;;;2.20;;
44098;SDS011;29762;50.086;14.364;2023-04-15T22:53:04;3.67;;;2.05;;
44098;SDS011;29762;50.086;14.364;2023-04-15T22:58:23;4.45;;;2.10;;
44098;SDS011;29762;50.086;14.364;2023-04-15T23:03:44;5.55;;;2.28;;
44098;SDS011;29762;50.086;14.364;2023-04-15T23:09:03;5.60;;;2.05;;
44098;SDS011;29762;50.086;14.364;2023-04-15T23:14:22;4.47;;;2.00;;
44098;SDS011;29762;50.086;14.364;2023-04-15T23:19:43;4.43;;;1.80;;
44098;SDS011;29762;50.086;14.364;2023-04-15T23:25:03;4.40;;;2.00;;
44098;SDS011;29762;50.086;14.364;2023-04-15T23:30:23;5.35;;;2.13;;
44098;SDS011;29762;50.086;14.364;2023-04-15T23:35:43;3.63;;;1.85;;
44098;SDS011;29762;50.086;14.364;2023-04-15T23:41:02;5.65;;;2.10;;
44098;SDS011;29762;50.086;14.364;2023-04-15T23:46:22;3.38;;;1.80;;
44098;SDS011;29762;50.086;14.364;2023-04-15T23:51:41;3.38;;;1.95;;
44098;SDS011;29762;50.086;14.364;2023-04-15T23:57:01;3.03;;;1.90;;
